Time;durP1;ratioP1;P1;durP2;ratioP2;P2;SDS_P1;SDS_P2;PMS_P1;PMS_P2;Temp;Humidity;BMP_temperature;BMP_pressure;BME280_temperature;BME280_humidity;BME280_pressure;Samples;Min_cycle;Max_cycle;Signal;HPM_P1;HPM_P2
2023/01/19 00:00:58;;;;;;;5.00;0.30;;;3.20;99.90;;;;;;5049895;28;20400;-92
2023/01/19 00:03:23;;;;;;;4.57;0.40;;;3.20;99.90;;;;;;5050402;28;20906;-93
2023/01/19 00:05:49;;;;;;;4.97;0.30;;;3.20;99.90;;;;;;5051194;28;20400;-93
2023/01/19 00:08:15;;;;;;;6.72;0.40;;;3.10;99.90;;;;;;5048965;28;20506;-92
2023/01/19 00:10:46;;;;;;;7.00;0.35;;;3.10;99.90;;;;;;5051243;28;20483;-91
2023/01/19 00:13:13;;;;;;;5.25;0.45;;;3.10;99.90;;;;;;5048766;28;20969;-92
2023/01/19 00:15:38;;;;;;;6.60;0.80;;;3.10;99.90;;;;;;5050404;28;20718;-91
2023/01/19 00:18:04;;;;;;;5.90;0.52;;;3.10;99.90;;;;;;5049519;28;20883;-92
2023/01/19 00:20:31;;;;;;;8.02;0.60;;;3.20;99.90;;;;;;5049480;28;20438;-91
2023/01/19 00:22:57;;;;;;;7.68;0.77;;;3.20;99.90;;;;;;5050103;28;20430;-92
2023/01/19 00:25:23;;;;;;;7.47;0.50;;;3.20;99.90;;;;;;5049327;28;20408;-91
2023/01/19 00:27:48;;;;;;;5.53;0.43;;;3.30;99.90;;;;;;5050647;28;20424;-92
2023/01/19 00:30:15;;;;;;;7.05;0.47;;;3.20;99.90;;;;;;5048896;28;20487;-90
2023/01/19 00:32:40;;;;;;;6.32;0.40;;;3.30;99.90;;;;;;5050312;28;20400;-91
2023/01/19 00:35:07;;;;;;;7.97;0.43;;;3.30;99.90;;;;;;5048818;28;20476;-91
2023/01/19 00:37:32;;;;;;;6.75;0.60;;;3.30;99.90;;;;;;5050010;28;20453;-92
2023/01/19 00:39:58;;;;;;;5.13;0.57;;;3.30;99.90;;;;;;5049656;28;20518;-91
2023/01/19 00:42:38;;;;;;;8.38;0.50;;;3.40;99.90;;;;;;5049762;28;20396;-90
2023/01/19 00:45:08;;;;;;;7.63;0.53;;;3.30;99.90;;;;;;5050560;28;20395;-91
2023/01/19 00:47:34;;;;;;;10.67;0.50;;;3.40;99.90;;;;;;5048235;28;20498;-91
2023/01/19 00:50:00;;;;;;;7.87;0.60;;;3.50;99.90;;;;;;5050335;28;20407;-91
2023/01/19 00:52:25;;;;;;;6.90;0.40;;;3.30;99.90;;;;;;5048154;28;20408;-90
2023/01/19 00:54:53;;;;;;;7.07;0.60;;;3.30;99.90;;;;;;5049827;28;20446;-91
2023/01/19 00:57:19;;;;;;;10.40;0.70;;;3.30;99.90;;;;;;5049217;28;20454;-91
2023/01/19 00:59:44;;;;;;;8.77;0.40;;;3.30;99.90;;;;;;5048877;28;20436;-90
2023/01/19 01:02:10;;;;;;;10.37;0.87;;;3.30;99.90;;;;;;5050148;28;20422;-90
2023/01/19 01:04:37;;;;;;;8.20;0.88;;;3.30;99.90;;;;;;5048352;28;20400;-90
2023/01/19 01:07:03;;;;;;;9.90;0.73;;;3.40;99.90;;;;;;5050113;28;20408;-91
2023/01/19 01:09:29;;;;;;;8.48;0.80;;;3.40;99.90;;;;;;5047840;28;20490;-92
2023/01/19 01:11:55;;;;;;;13.15;0.90;;;3.40;99.90;;;;;;5050061;28;20498;-91
2023/01/19 01:14:22;;;;;;;9.88;1.08;;;3.40;99.90;;;;;;5048819;28;20482;-90
2023/01/19 01:16:48;;;;;;;10.40;0.80;;;3.50;99.90;;;;;;5049843;28;20850;-93
2023/01/19 01:19:13;;;;;;;10.00;1.23;;;3.60;99.90;;;;;;5049768;28;20440;-91
2023/01/19 01:21:39;;;;;;;7.87;0.90;;;3.50;99.90;;;;;;5048465;28;20435;-92
2023/01/19 01:24:06;;;;;;;12.70;1.30;;;3.50;99.90;;;;;;5049941;28;20408;-91
2023/01/19 01:26:31;;;;;;;8.38;0.70;;;3.50;99.90;;;;;;5048412;28;20932;-90
2023/01/19 01:28:57;;;;;;;10.43;0.67;;;3.50;99.90;;;;;;5050116;28;20396;-92
2023/01/19 01:31:23;;;;;;;10.20;0.63;;;3.60;99.90;;;;;;5050462;28;20407;-91
2023/01/19 01:33:48;;;;;;;15.98;1.45;;;3.60;99.90;;;;;;5054150;28;20399;-91
2023/01/19 01:36:14;;;;;;;10.90;1.00;;;3.70;99.90;;;;;;5052608;28;20949;-92
2023/01/19 01:38:40;;;;;;;8.70;0.68;;;3.70;99.90;;;;;;5052532;28;20890;-91
2023/01/19 01:41:07;;;;;;;9.70;0.85;;;3.70;99.90;;;;;;5053868;28;20857;-92
2023/01/19 01:43:46;;;;;;;10.73;1.00;;;3.70;99.90;;;;;;5051717;28;20406;-91
2023/01/19 01:46:14;;;;;;;11.57;0.90;;;3.70;99.90;;;;;;5053704;28;20415;-93
2023/01/19 01:48:43;;;;;;;15.13;1.00;;;3.80;99.90;;;;;;5051857;28;20507;-91
2023/01/19 01:51:25;;;;;;;14.65;1.80;;;3.70;99.90;;;;;;5053528;28;20399;-93
2023/01/19 01:54:15;;;;;;;14.60;1.25;;;3.90;99.90;;;;;;5053003;28;20399;-93
2023/01/19 01:56:45;;;;;;;11.48;0.80;;;3.70;99.90;;;;;;5051694;28;20439;-93
2023/01/19 01:59:26;;;;;;;13.83;0.70;;;3.80;99.90;;;;;;5053338;28;20502;-93
2023/01/19 02:04:48;;;;;;;11.63;0.90;;;3.70;99.90;;;;;;5068906;28;20403;-92
2023/01/19 02:15:35;;;;;;;13.00;0.80;;;3.80;99.90;;;;;;5069155;28;20412;-94
2023/01/19 02:18:01;;;;;;;8.50;0.73;;;3.80;99.90;;;;;;5051765;28;20423;-90
2023/01/19 02:20:30;;;;;;;6.20;0.40;;;3.90;99.90;;;;;;5052656;28;20799;-92
2023/01/19 02:23:02;;;;;;;7.75;0.70;;;3.80;99.90;;;;;;5051265;28;20823;-93
2023/01/19 02:25:28;;;;;;;7.18;0.50;;;3.80;99.90;;;;;;5052901;28;20392;-93
2023/01/19 02:27:54;;;;;;;7.75;0.40;;;3.70;99.90;;;;;;5051126;28;20407;-92
2023/01/19 02:30:20;;;;;;;9.07;0.35;;;3.80;99.90;;;;;;5052526;28;20409;-93
2023/01/19 02:32:45;;;;;;;8.20;0.50;;;3.80;99.90;;;;;;5052373;28;20411;-92
2023/01/19 02:35:12;;;;;;;5.80;0.30;;;3.90;99.90;;;;;;5051052;28;20406;-91
2023/01/19 02:37:39;;;;;;;9.38;0.43;;;3.80;99.90;;;;;;5052136;28;20430;-92
2023/01/19 02:40:14;;;;;;;6.35;0.70;;;3.90;99.90;;;;;;5050671;28;20915;-91
2023/01/19 02:42:44;;;;;;;10.70;0.73;;;3.80;99.90;;;;;;5051370;28;20415;-91
2023/01/19 02:45:13;;;;;;;10.30;0.80;;;3.80;99.90;;;;;;5050997;28;20487;-92
2023/01/19 02:47:48;;;;;;;6.95;0.40;;;3.80;99.90;;;;;;5051780;28;20449;-91
2023/01/19 02:50:37;;;;;;;8.27;0.65;;;3.80;99.90;;;;;;5052036;28;20964;-91
2023/01/19 02:53:31;;;;;;;9.18;0.50;;;3.80;99.90;;;;;;5050629;28;20497;-92
2023/01/19 02:56:18;;;;;;;9.52;0.65;;;3.70;99.90;;;;;;5052640;28;20450;-91
2023/01/19 02:59:10;;;;;;;7.53;0.50;;;3.70;99.90;;;;;;5051588;28;21081;-91
2023/01/19 03:01:50;;;;;;;8.05;0.50;;;3.70;99.90;;;;;;5050458;28;20404;-91
2023/01/19 03:04:27;;;;;;;9.55;0.50;;;3.70;99.90;;;;;;5052453;28;20997;-92
2023/01/19 03:07:17;;;;;;;7.38;0.50;;;3.70;99.90;;;;;;5050814;28;20509;-90
2023/01/19 03:10:04;;;;;;;8.38;0.60;;;3.70;99.90;;;;;;5050484;28;20400;-91
2023/01/19 03:12:45;;;;;;;11.77;1.25;;;3.70;99.90;;;;;;5051831;28;20416;-91
2023/01/19 03:15:35;;;;;;;9.57;0.70;;;3.80;99.90;;;;;;5049679;28;20907;-93
2023/01/19 03:18:05;;;;;;;5.93;0.30;;;3.60;99.90;;;;;;5052266;28;20755;-92
2023/01/19 03:20:31;;;;;;;5.80;0.40;;;3.70;99.90;;;;;;5051521;28;20470;-92
2023/01/19 03:23:05;;;;;;;6.60;0.45;;;3.70;99.90;;;;;;5050620;28;20858;-92
2023/01/19 03:25:36;;;;;;;7.30;0.22;;;3.80;99.90;;;;;;5068064;28;20411;-92
2023/01/19 03:28:03;;;;;;;8.00;0.45;;;3.80;99.90;;;;;;5049725;28;20403;-92
2023/01/19 03:30:34;;;;;;;7.97;0.30;;;3.80;99.90;;;;;;5051576;28;20483;-91
2023/01/19 03:33:21;;;;;;;8.48;0.45;;;3.80;99.90;;;;;;5049965;28;20412;-92
2023/01/19 03:35:51;;;;;;;5.43;0.25;;;3.80;99.90;;;;;;5050765;28;20465;-93
2023/01/19 03:38:23;;;;;;;8.43;0.60;;;3.80;99.90;;;;;;5051580;28;20449;-92
2023/01/19 03:40:52;;;;;;;7.07;0.50;;;3.80;99.90;;;;;;5049547;28;20473;-93
2023/01/19 03:43:20;;;;;;;8.98;0.45;;;3.90;99.90;;;;;;5051447;28;20470;-93
2023/01/19 03:45:46;;;;;;;6.53;0.30;;;3.80;99.90;;;;;;5049108;28;20439;-92
2023/01/19 03:48:12;;;;;;;8.33;0.50;;;3.90;99.90;;;;;;5050921;28;20405;-93
2023/01/19 03:50:38;;;;;;;7.00;0.60;;;3.80;99.90;;;;;;5050154;28;20404;-93
2023/01/19 03:53:13;;;;;;;8.40;0.30;;;3.80;99.90;;;;;;5050074;28;20898;-92
2023/01/19 03:55:44;;;;;;;5.33;0.37;;;3.80;99.90;;;;;;5050895;28;20433;-92
2023/01/19 03:58:10;;;;;;;6.13;0.30;;;3.80;99.90;;;;;;5048908;28;20416;-92
2023/01/19 04:00:36;;;;;;;8.77;0.32;;;3.70;99.90;;;;;;5050637;28;20435;-92
2023/01/19 04:03:03;;;;;;;7.30;0.20;;;3.70;99.90;;;;;;5049261;28;20772;-92
2023/01/19 04:05:29;;;;;;;7.82;0.40;;;3.80;99.90;;;;;;5050517;28;20403;-92
2023/01/19 04:07:55;;;;;;;6.90;0.30;;;4.00;99.90;;;;;;5049770;28;20402;-92
2023/01/19 04:10:21;;;;;;;8.10;0.50;;;3.60;99.90;;;;;;5049787;28;20415;-91
2023/01/19 04:12:49;;;;;;;10.73;0.80;;;3.90;99.90;;;;;;5050459;28;20565;-92
2023/01/19 04:15:15;;;;;;;6.22;0.40;;;3.80;99.90;;;;;;5048906;28;20416;-92
2023/01/19 04:17:41;;;;;;;5.57;0.33;;;3.80;99.90;;;;;;5050526;28;20986;-92
2023/01/19 04:20:07;;;;;;;9.57;0.40;;;3.80;99.90;;;;;;5048717;28;20423;-92
2023/01/19 04:22:34;;;;;;;9.20;0.30;;;3.90;99.90;;;;;;5050548;28;20911;-93
2023/01/19 04:24:59;;;;;;;9.95;0.40;;;3.80;99.90;;;;;;5049257;28;20420;-92
2023/01/19 04:27:25;;;;;;;7.72;0.40;;;3.80;99.90;;;;;;5050147;28;21036;-91
2023/01/19 04:29:51;;;;;;;7.18;0.35;;;3.90;99.90;;;;;;5049883;28;20426;-91
2023/01/19 04:32:17;;;;;;;5.30;0.50;;;3.90;99.90;;;;;;5049311;28;20404;-92
2023/01/19 04:34:43;;;;;;;3.97;0.30;;;3.80;99.90;;;;;;5050225;28;20918;-93
2023/01/19 04:37:09;;;;;;;7.43;0.22;;;3.90;99.90;;;;;;5049299;28;20484;-92
2023/01/19 04:39:35;;;;;;;11.43;0.80;;;3.80;99.90;;;;;;5050043;28;20427;-92
2023/01/19 04:42:01;;;;;;;7.35;0.40;;;3.70;99.90;;;;;;5048437;28;20412;-92
2023/01/19 04:44:27;;;;;;;8.65;0.45;;;3.80;99.90;;;;;;5050725;28;20396;-91
2023/01/19 04:46:53;;;;;;;11.50;0.50;;;4.20;99.90;;;;;;5048804;28;20396;-91
2023/01/19 04:49:19;;;;;;;8.25;0.30;;;3.80;99.90;;;;;;5049880;28;20499;-92
2023/01/19 04:51:45;;;;;;;8.77;0.50;;;3.80;99.90;;;;;;5049920;28;20435;-92
2023/01/19 04:54:11;;;;;;;6.60;0.50;;;4.10;99.90;;;;;;5048413;28;20469;-92
2023/01/19 04:56:38;;;;;;;8.52;0.60;;;3.90;99.90;;;;;;5050471;28;20400;-92
2023/01/19 04:59:04;;;;;;;9.40;0.50;;;3.90;99.90;;;;;;5048138;28;21028;-93
2023/01/19 05:01:30;;;;;;;10.17;0.90;;;3.60;99.90;;;;;;5050274;28;20511;-92
2023/01/19 05:03:58;;;;;;;9.77;3.60;;;3.70;99.90;;;;;;5048497;28;20454;-91
2023/01/19 05:06:23;;;;;;;10.52;3.80;;;3.70;99.90;;;;;;5054174;28;20419;-91
2023/01/19 05:08:49;;;;;;;7.80;0.83;;;3.80;99.90;;;;;;5055791;28;20849;-92
2023/01/19 05:11:15;;;;;;;5.63;0.60;;;3.70;99.90;;;;;;5055784;28;20415;-90
2023/01/19 05:13:41;;;;;;;7.18;0.60;;;3.70;99.90;;;;;;5056333;28;20452;-92
2023/01/19 05:16:07;;;;;;;8.05;0.63;;;3.60;99.90;;;;;;5054487;28;20856;-92
2023/01/19 05:18:35;;;;;;;9.07;0.40;;;3.50;99.90;;;;;;5056647;28;20419;-91
2023/01/19 05:21:02;;;;;;;7.45;0.70;;;3.70;99.90;;;;;;5054923;28;20926;-91
2023/01/19 05:23:29;;;;;;;10.93;0.68;;;3.50;99.90;;;;;;5056444;28;20399;-92
2023/01/19 05:25:55;;;;;;;11.57;0.70;;;3.40;99.90;;;;;;5055208;28;20403;-91
2023/01/19 05:28:21;;;;;;;13.70;1.30;;;3.40;99.90;;;;;;5056196;28;20396;-92
2023/01/19 05:30:48;;;;;;;9.45;0.80;;;3.40;99.90;;;;;;5056089;28;20392;-92
2023/01/19 05:33:14;;;;;;;11.85;1.00;;;3.60;99.90;;;;;;5054902;28;20782;-92
2023/01/19 05:35:40;;;;;;;11.73;1.15;;;3.40;99.90;;;;;;5056407;28;20411;-92
2023/01/19 05:38:06;;;;;;;13.68;0.77;;;3.40;99.90;;;;;;5054636;28;20439;-91
2023/01/19 05:40:32;;;;;;;11.93;0.82;;;3.40;99.90;;;;;;5056581;28;20896;-92
2023/01/19 05:43:00;;;;;;;11.68;0.82;;;3.50;99.90;;;;;;5054902;28;20490;-91
2023/01/19 05:45:27;;;;;;;12.60;1.17;;;3.40;99.90;;;;;;5056343;28;20399;-91
2023/01/19 05:47:55;;;;;;;15.13;1.40;;;3.40;99.90;;;;;;5055901;28;20446;-92
2023/01/19 05:50:21;;;;;;;14.27;1.58;;;3.40;99.90;;;;;;5054683;28;20415;-92
2023/01/19 05:52:47;;;;;;;9.20;0.80;;;3.40;99.90;;;;;;5056062;28;20502;-92
2023/01/19 05:55:13;;;;;;;8.77;0.77;;;3.40;99.90;;;;;;5055052;28;20406;-91
2023/01/19 05:57:39;;;;;;;15.90;1.50;;;3.40;99.90;;;;;;5056172;28;20899;-91
2023/01/19 06:00:05;;;;;;;11.37;0.90;;;3.30;99.90;;;;;;5054394;28;20476;-91
2023/01/19 06:02:31;;;;;;;10.77;0.70;;;3.30;99.90;;;;;;5055308;28;20418;-91
2023/01/19 06:04:57;;;;;;;11.77;0.80;;;3.30;99.90;;;;;;5055009;28;20395;-91
2023/01/19 06:07:23;;;;;;;12.90;0.80;;;3.30;99.90;;;;;;5056072;28;20494;-91
2023/01/19 06:09:48;;;;;;;11.50;0.90;;;3.30;99.90;;;;;;5055705;28;20447;-91
2023/01/19 06:12:14;;;;;;;9.00;0.80;;;3.30;99.90;;;;;;5054497;28;20918;-91
2023/01/19 06:14:39;;;;;;;9.50;0.70;;;3.30;99.90;;;;;;5055793;28;20898;-93
2023/01/19 06:17:06;;;;;;;11.43;0.85;;;3.20;99.90;;;;;;5051765;28;20412;-91
2023/01/19 06:19:33;;;;;;;11.55;1.15;;;3.30;99.90;;;;;;5052634;28;20455;-91
2023/01/19 06:21:59;;;;;;;9.70;0.80;;;3.30;99.90;;;;;;5051467;28;20399;-90
2023/01/19 06:24:25;;;;;;;9.45;0.70;;;3.40;99.90;;;;;;5052360;28;20411;-92
2023/01/19 06:26:50;;;;;;;6.07;0.40;;;3.40;99.90;;;;;;5051839;28;20887;-90
2023/01/19 06:29:17;;;;;;;14.83;0.80;;;3.50;99.90;;;;;;5051800;28;20906;-92
2023/01/19 06:31:42;;;;;;;10.95;1.38;;;3.40;99.90;;;;;;5052581;28;20421;-93
2023/01/19 06:34:08;;;;;;;12.93;1.10;;;3.60;99.90;;;;;;5050860;28;20400;-92
2023/01/19 06:36:34;;;;;;;13.70;1.13;;;3.50;99.90;;;;;;5052546;28;20917;-92
2023/01/19 06:39:04;;;;;;;14.57;1.00;;;3.50;99.90;;;;;;5050362;28;20400;-92
2023/01/19 06:41:30;;;;;;;13.90;1.17;;;3.70;99.90;;;;;;5052480;28;20415;-92
2023/01/19 06:43:55;;;;;;;15.90;1.27;;;3.70;99.90;;;;;;5051160;28;20894;-93
2023/01/19 06:46:21;;;;;;;12.50;1.70;;;3.80;99.90;;;;;;5051918;28;20422;-91
2023/01/19 06:48:47;;;;;;;15.23;1.87;;;3.80;99.90;;;;;;5052329;28;20397;-93
2023/01/19 06:51:12;;;;;;;15.27;1.17;;;3.80;99.90;;;;;;5051024;28;20751;-92
2023/01/19 06:53:38;;;;;;;17.08;1.48;;;3.80;99.80;;;;;;5051928;28;20411;-91
2023/01/19 06:56:05;;;;;;;14.43;1.15;;;3.80;99.80;;;;;;5050590;28;20446;-93
2023/01/19 06:58:33;;;;;;;13.93;1.58;;;3.90;99.90;;;;;;5052102;28;20406;-94
2023/01/19 07:01:06;;;;;;;12.82;0.88;;;3.90;99.90;;;;;;5050236;28;20428;-93
2023/01/19 07:03:33;;;;;;;10.77;0.98;;;3.80;99.90;;;;;;5051672;28;20411;-92
2023/01/19 07:06:01;;;;;;;8.73;0.80;;;4.00;99.90;;;;;;5051471;28;20479;-91
2023/01/19 07:08:28;;;;;;;8.00;0.70;;;3.80;99.90;;;;;;5050206;28;20934;-91
2023/01/19 07:11:00;;;;;;;9.38;0.80;;;3.70;99.90;;;;;;5051835;28;20399;-91
2023/01/19 07:13:25;;;;;;;12.10;1.02;;;3.80;99.90;;;;;;5049985;28;20403;-91
2023/01/19 07:15:51;;;;;;;16.57;1.60;;;3.70;99.90;;;;;;5051705;28;20408;-90
2023/01/19 07:18:17;;;;;;;13.82;1.25;;;3.70;99.90;;;;;;5050669;28;20403;-91
2023/01/19 07:20:44;;;;;;;18.88;1.10;;;3.90;99.90;;;;;;5051406;28;20419;-92
2023/01/19 07:23:10;;;;;;;16.47;1.30;;;3.90;99.90;;;;;;5051111;28;20410;-93
2023/01/19 07:25:37;;;;;;;20.93;1.80;;;3.90;99.90;;;;;;5050662;28;20408;-92
2023/01/19 07:28:03;;;;;;;21.80;1.45;;;3.90;99.90;;;;;;5051137;28;20404;-92
2023/01/19 07:30:28;;;;;;;18.83;1.17;;;3.80;99.90;;;;;;5049862;28;20399;-91
2023/01/19 07:32:56;;;;;;;21.87;1.50;;;3.90;99.90;;;;;;5051627;28;21000;-91
2023/01/19 07:35:22;;;;;;;16.63;1.40;;;3.90;99.90;;;;;;5049323;28;20457;-92
2023/01/19 07:37:48;;;;;;;15.43;1.80;;;3.90;99.90;;;;;;5051303;28;20404;-90
2023/01/19 07:40:14;;;;;;;16.93;1.67;;;3.80;99.90;;;;;;5050072;28;20779;-91
2023/01/19 07:42:45;;;;;;;13.97;1.10;;;3.90;99.90;;;;;;5050513;28;20465;-91
2023/01/19 07:45:11;;;;;;;15.27;1.33;;;3.80;99.90;;;;;;5051236;28;20415;-92
2023/01/19 07:47:36;;;;;;;15.48;1.55;;;4.10;99.90;;;;;;5049525;28;20400;-93
2023/01/19 07:50:02;;;;;;;13.97;1.47;;;3.90;99.90;;;;;;5051124;28;20408;-91
2023/01/19 07:52:28;;;;;;;17.73;1.83;;;3.80;99.90;;;;;;5049807;28;20396;-91
2023/01/19 07:54:54;;;;;;;18.37;1.47;;;3.80;99.90;;;;;;5051283;28;20937;-93
2023/01/19 07:57:20;;;;;;;16.35;1.08;;;3.80;99.90;;;;;;5049658;28;20419;-91
2023/01/19 07:59:45;;;;;;;13.65;1.23;;;3.80;99.90;;;;;;5050750;28;20428;-90
2023/01/19 08:02:11;;;;;;;16.77;1.13;;;3.80;99.90;;;;;;5050410;28;20395;-92
2023/01/19 08:04:37;;;;;;;17.77;1.95;;;3.70;98.90;;;;;;5049854;28;20408;-91
2023/01/19 08:07:02;;;;;;;17.13;1.63;;;3.70;98.90;;;;;;5050546;28;20465;-93
2023/01/19 08:09:28;;;;;;;19.70;1.67;;;3.60;98.80;;;;;;5049057;28;20408;-92
2023/01/19 08:11:53;;;;;;;16.08;1.83;;;3.50;98.70;;;;;;5050604;28;20887;-89
2023/01/19 08:14:19;;;;;;;17.10;1.77;;;3.50;98.80;;;;;;5048936;28;20399;-93
2023/01/19 08:16:45;;;;;;;19.57;1.87;;;3.40;98.90;;;;;;5050718;28;20828;-92
2023/01/19 08:19:11;;;;;;;17.87;1.50;;;3.40;99.00;;;;;;5049448;28;20466;-90
2023/01/19 08:21:37;;;;;;;17.00;1.50;;;3.30;99.20;;;;;;5050332;28;20458;-90
2023/01/19 08:24:03;;;;;;;17.65;1.60;;;3.30;99.20;;;;;;5050195;28;20457;-91
2023/01/19 08:26:32;;;;;;;24.85;2.10;;;3.30;99.40;;;;;;5048715;28;20537;-92
2023/01/19 08:29:01;;;;;;;22.45;2.10;;;3.50;99.70;;;;;;5050519;28;20395;-93
2023/01/19 08:31:27;;;;;;;20.55;2.45;;;3.30;99.80;;;;;;5048628;28;20899;-92
2023/01/19 08:33:52;;;;;;;18.42;1.80;;;3.30;99.80;;;;;;5050372;28;20407;-94
2023/01/19 08:36:20;;;;;;;21.42;2.25;;;3.40;99.80;;;;;;5048698;28;20416;-92
2023/01/19 08:38:46;;;;;;;17.98;1.92;;;3.50;99.80;;;;;;5050045;28;20440;-93
2023/01/19 08:41:12;;;;;;;20.00;2.88;;;3.70;99.70;;;;;;5048728;28;20408;-92
2023/01/19 08:43:38;;;;;;;18.35;2.30;;;3.40;99.50;;;;;;5049081;28;20407;-92
2023/01/19 08:46:04;;;;;;;21.60;2.25;;;3.50;99.40;;;;;;5050001;28;20736;-92
2023/01/19 08:48:30;;;;;;;19.70;2.40;;;3.60;99.40;;;;;;5048986;28;20473;-91
2023/01/19 08:50:56;;;;;;;22.77;1.77;;;3.50;99.30;;;;;;5049987;28;20396;-93
2023/01/19 08:53:22;;;;;;;21.50;2.38;;;3.50;99.30;;;;;;5048444;28;20427;-93
2023/01/19 08:55:49;;;;;;;20.55;2.25;;;3.50;99.30;;;;;;5050170;28;20454;-91
2023/01/19 08:58:14;;;;;;;15.88;2.00;;;3.60;99.50;;;;;;5048694;28;20400;-92
2023/01/19 09:00:40;;;;;;;18.13;1.70;;;3.50;99.30;;;;;;5049500;28;20435;-91
2023/01/19 09:03:08;;;;;;;19.83;1.95;;;3.60;99.60;;;;;;5049634;28;20406;-92
2023/01/19 09:05:37;;;;;;;15.23;2.22;;;3.50;99.10;;;;;;5048281;28;20839;-92
2023/01/19 09:08:13;;;;;;;17.77;1.23;;;3.50;99.10;;;;;;5049798;28;20577;-93
2023/01/19 09:10:46;;;;;;;16.83;1.47;;;3.50;99.30;;;;;;5045050;28;20502;-91
2023/01/19 09:13:12;;;;;;;11.55;1.15;;;3.60;99.20;;;;;;5049547;28;20403;-92
2023/01/19 09:15:38;;;;;;;9.53;1.10;;;3.60;99.10;;;;;;5048418;28;20952;-92
2023/01/19 09:18:12;;;;;;;12.63;0.98;;;3.70;99.00;;;;;;5049409;28;20412;-91
2023/01/19 09:20:43;;;;;;;10.80;0.93;;;3.80;98.90;;;;;;5049526;28;20427;-93
2023/01/19 09:23:13;;;;;;;10.30;0.90;;;3.90;98.20;;;;;;5048171;28;20403;-94
2023/01/19 09:25:40;;;;;;;9.55;0.90;;;4.00;97.90;;;;;;5050080;28;20407;-92
2023/01/19 09:28:08;;;;;;;9.50;0.70;;;3.80;97.00;;;;;;5047798;28;20438;-93
2023/01/19 09:30:36;;;;;;;9.93;0.70;;;3.90;97.10;;;;;;5049616;28;20399;-93
2023/01/19 09:33:10;;;;;;;12.02;1.15;;;3.90;97.00;;;;;;5048577;28;20418;-93
2023/01/19 09:35:37;;;;;;;8.20;0.65;;;4.20;97.30;;;;;;5048871;28;20487;-92
2023/01/19 09:38:04;;;;;;;10.25;0.90;;;4.30;97.00;;;;;;5049301;28;20414;-94
2023/01/19 09:40:30;;;;;;;10.93;0.73;;;4.30;97.70;;;;;;5047708;28;20435;-94
2023/01/19 09:43:11;;;;;;;7.65;0.45;;;4.30;97.20;;;;;;5049956;28;20706;-92
2023/01/19 09:45:59;;;;;;;8.57;0.70;;;4.30;97.00;;;;;;5048509;28;20914;-94
2023/01/19 09:48:28;;;;;;;8.32;0.60;;;4.30;96.80;;;;;;5049242;28;20415;-93
2023/01/19 09:50:58;;;;;;;7.22;0.60;;;4.40;96.80;;;;;;5049215;28;20408;-94
2023/01/19 09:53:37;;;;;;;8.98;0.60;;;4.70;97.10;;;;;;5051415;28;20400;-93
2023/01/19 09:56:03;;;;;;;10.23;0.80;;;4.90;97.60;;;;;;5053136;28;20404;-92
2023/01/19 09:58:28;;;;;;;7.95;0.70;;;5.30;97.20;;;;;;5051481;28;20427;-94
2023/01/19 10:01:07;;;;;;;8.13;0.68;;;5.60;96.60;;;;;;5053266;28;20948;-93
2023/01/19 10:03:40;;;;;;;8.38;0.82;;;5.80;95.80;;;;;;5052360;28;20404;-93
2023/01/19 10:06:10;;;;;;;8.23;0.75;;;6.40;95.70;;;;;;5051521;28;20453;-93
2023/01/19 10:09:02;;;;;;;9.95;1.00;;;6.60;95.60;;;;;;5053312;28;20916;-93
2023/01/19 10:11:49;;;;;;;9.38;0.70;;;7.00;95.10;;;;;;5051026;28;20483;-92
2023/01/19 10:14:24;;;;;;;11.38;1.02;;;7.10;94.20;;;;;;5052840;28;20771;-93
2023/01/19 10:17:11;;;;;;;9.30;1.00;;;6.70;93.80;;;;;;5052757;28;20412;-92
2023/01/19 10:19:43;;;;;;;10.18;0.85;;;6.40;93.00;;;;;;5050826;28;20435;-93
2023/01/19 10:22:29;;;;;;;9.93;0.90;;;6.10;93.90;;;;;;5052843;28;20411;-93
2023/01/19 10:24:59;;;;;;;10.95;1.02;;;6.00;94.50;;;;;;5051028;28;20408;-94
2023/01/19 10:27:30;;;;;;;9.60;0.88;;;6.00;94.50;;;;;;5052113;28;20404;-93
2023/01/19 10:29:57;;;;;;;11.25;0.70;;;6.00;94.60;;;;;;5052678;28;20415;-92
2023/01/19 10:32:34;;;;;;;13.15;1.35;;;6.20;94.50;;;;;;5050804;28;20973;-92
2023/01/19 10:35:13;;;;;;;8.40;0.80;;;6.40;94.00;;;;;;5052396;28;20418;-94
2023/01/19 10:37:40;;;;;;;10.50;0.90;;;6.60;94.00;;;;;;5050544;28;20403;-92
2023/01/19 10:40:09;;;;;;;9.95;1.05;;;6.80;94.50;;;;;;5051866;28;21028;-94
2023/01/19 10:42:37;;;;;;;10.18;0.90;;;7.10;93.80;;;;;;5051886;28;21169;-93
2023/01/19 10:45:13;;;;;;;11.98;1.23;;;7.40;93.10;;;;;;5050756;28;20404;-93
2023/01/19 10:47:39;;;;;;;10.20;1.10;;;7.60;92.80;;;;;;5052197;28;20487;-94
2023/01/19 10:50:21;;;;;;;10.95;1.10;;;7.80;93.70;;;;;;5093831;22;20420;-95
2023/01/19 10:52:53;;;;;;;8.52;0.98;;;8.10;91.30;;;;;;5050359;28;20412;-93
2023/01/19 10:55:34;;;;;;;8.93;0.80;;;8.20;89.50;;;;;;5068942;28;20423;-94
2023/01/19 10:58:00;;;;;;;10.88;1.00;;;8.50;92.20;;;;;;5067187;28;20419;-94
2023/01/19 11:00:41;;;;;;;8.07;0.70;;;8.50;90.60;;;;;;5050913;28;20768;-94
2023/01/19 11:03:29;;;;;;;6.60;0.80;;;8.80;88.80;;;;;;5051023;28;20414;-94
2023/01/19 11:06:17;;;;;;;6.40;0.50;;;8.90;85.50;;;;;;5050346;28;20404;-93
2023/01/19 11:08:44;;;;;;;8.40;0.47;;;8.90;78.60;;;;;;5051650;28;20455;-94
2023/01/19 11:11:11;;;;;;;6.43;0.55;;;8.70;77.50;;;;;;5067025;28;20419;-93
2023/01/19 11:13:41;;;;;;;5.63;0.43;;;8.70;80.70;;;;;;5051175;28;20898;-94
2023/01/19 11:16:19;;;;;;;4.80;0.50;;;8.90;76.90;;;;;;5051256;28;20407;-93
2023/01/19 11:18:50;;;;;;;7.20;0.70;;;9.00;81.70;;;;;;5050297;28;20556;-92
2023/01/19 11:21:16;;;;;;;4.60;0.30;;;9.20;81.90;;;;;;5051477;28;20534;-93
2023/01/19 11:23:48;;;;;;;5.50;0.30;;;9.30;78.70;;;;;;5049498;28;20407;-94
2023/01/19 11:26:31;;;;;;;5.03;0.88;;;9.60;79.50;;;;;;5068166;28;20763;-91
2023/01/19 11:29:00;;;;;;;6.28;0.40;;;9.70;77.70;;;;;;5051137;28;20407;-94
2023/01/19 11:31:28;;;;;;;4.30;0.57;;;9.70;72.30;;;;;;5049528;28;20465;-89
2023/01/19 11:33:57;;;;;;;7.10;0.90;;;9.60;74.60;;;;;;5067726;28;21036;-93
2023/01/19 11:36:27;;;;;;;7.03;0.60;;;9.70;74.40;;;;;;5049809;28;20475;-92
2023/01/19 11:38:55;;;;;;;4.77;0.40;;;9.50;74.50;;;;;;5068197;28;20458;-92
2023/01/19 11:41:40;;;;;;;5.43;0.40;;;9.20;74.20;;;;;;5066391;28;20431;-93
2023/01/19 11:44:12;;;;;;;6.43;0.60;;;9.30;74.80;;;;;;5050409;28;20428;-93
2023/01/19 11:46:42;;;;;;;8.48;0.95;;;8.90;77.10;;;;;;5050732;28;20404;-93
2023/01/19 11:49:19;;;;;;;7.65;0.65;;;8.50;77.90;;;;;;5066591;28;20491;-94
2023/01/19 11:52:25;;;;;;;8.45;0.60;;;8.60;78.50;;;;;;5067678;28;20408;-91
2023/01/19 11:54:56;;;;;;;6.75;0.50;;;8.20;81.00;;;;;;5041162;28;20407;-92
2023/01/19 11:57:22;;;;;;;7.18;0.55;;;8.20;81.40;;;;;;5049793;28;20404;-93
2023/01/19 11:59:48;;;;;;;6.53;0.50;;;8.50;81.40;;;;;;5050132;28;20438;-93
2023/01/19 12:02:23;;;;;;;7.35;0.60;;;8.70;78.60;;;;;;5065767;28;20767;-93
2023/01/19 12:04:49;;;;;;;6.35;0.45;;;9.00;79.00;;;;;;5051000;28;20499;-93
2023/01/19 12:07:22;;;;;;;7.35;0.40;;;9.10;73.90;;;;;;5049239;28;20420;-91
2023/01/19 12:09:53;;;;;;;5.07;0.30;;;8.90;72.70;;;;;;5050343;28;20958;-94
2023/01/19 12:12:29;;;;;;;4.25;0.30;;;8.50;71.20;;;;;;5050462;28;20445;-92
2023/01/19 12:15:17;;;;;;;4.13;0.30;;;8.30;72.70;;;;;;5048505;28;20423;-89
2023/01/19 12:17:57;;;;;;;4.47;0.30;;;7.70;72.00;;;;;;5050667;28;20477;-90
2023/01/19 12:20:28;;;;;;;5.82;0.38;;;7.40;76.30;;;;;;5049139;28;20498;-93
2023/01/19 12:23:09;;;;;;;3.80;0.20;;;7.20;80.10;;;;;;5049573;28;20597;-91
2023/01/19 12:25:43;;;;;;;3.95;0.32;;;7.00;79.80;;;;;;5066927;28;20827;-92
2023/01/19 12:28:14;;;;;;;4.50;0.30;;;6.90;78.90;;;;;;5065593;28;21021;-92
2023/01/19 12:30:40;;;;;;;5.88;0.20;;;6.70;79.40;;;;;;5050476;28;20455;-92
2023/01/19 12:33:24;;;;;;;5.30;0.40;;;6.70;82.30;;;;;;5048143;28;20400;-92
2023/01/19 12:35:59;;;;;;;5.45;0.35;;;6.60;82.60;;;;;;5049816;28;20403;-92
2023/01/19 12:38:44;;;;;;;5.32;0.70;;;6.50;83.00;;;;;;5049836;28;20408;-93
2023/01/19 12:41:26;;;;;;;5.47;0.52;;;6.30;84.50;;;;;;5065177;28;20840;-91
2023/01/19 12:44:10;;;;;;;4.55;0.20;;;6.30;83.80;;;;;;5049916;28;20416;-93
2023/01/19 12:46:53;;;;;;;6.05;0.38;;;6.20;82.80;;;;;;5049285;28;20759;-92
2023/01/19 12:49:37;;;;;;;6.63;0.50;;;6.20;84.40;;;;;;5048671;28;20431;-92
2023/01/19 12:52:25;;;;;;;7.93;0.47;;;6.10;87.10;;;;;;5066774;28;20447;-92
2023/01/19 12:55:06;;;;;;;6.50;0.40;;;6.10;87.70;;;;;;5048554;28;20498;-91
2023/01/19 12:57:57;;;;;;;7.85;0.75;;;6.10;89.60;;;;;;5065984;28;20938;-92
2023/01/19 13:00:22;;;;;;;7.88;0.50;;;6.10;88.10;;;;;;5049925;28;20439;-92
2023/01/19 13:02:54;;;;;;;7.30;0.60;;;6.20;90.40;;;;;;5065039;28;20853;-93
2023/01/19 13:05:38;;;;;;;6.15;0.50;;;6.50;88.40;;;;;;5066839;28;20442;-94
2023/01/19 13:08:13;;;;;;;4.72;0.30;;;6.50;88.40;;;;;;5048467;28;20403;-92
2023/01/19 13:10:52;;;;;;;5.95;0.55;;;6.90;90.10;;;;;;5065776;28;20416;-92
2023/01/19 13:13:21;;;;;;;7.27;0.50;;;7.10;87.90;;;;;;5066178;28;20431;-92
2023/01/19 13:15:47;;;;;;;7.68;0.50;;;7.00;86.30;;;;;;5048143;28;20492;-93
2023/01/19 13:18:22;;;;;;;9.10;0.70;;;7.00;89.50;;;;;;5049519;28;20886;-93